Aviation Digital Data Service (ADDS)

Output produced by METARs form (0136 UTC 23 November 2017)
found at http://www.aviationweather.gov/adds/metars/
 
DTTA 230130Z 17005KT 9999 FEW026 13/08 Q1018 NOSIG
TAF DTTA 230002Z 2300/2324 18006KT 9999 FEW026
       
DTTG 230100Z 06004KT 8000 FEW020 BKN030 12/11 Q1019 NOSIG
TAF DTTG 230006Z 2301/2310 20004KT 9999 SCT025 
     TEMPO 2301/2304 3000 -RA FEW030CB
       
DTTF 230100Z 00000KT 9999 FEW026 13/10 Q1019 NOSIG
TAF DTTF 230006Z 2301/2310 05004KT 9999 SCT025 
     PROB30 2301/2304 3000 -RA FEW030CB
       
DTMB 230130Z 19007KT 5000 FEW020 14/13 Q1019
TAF DTMB 230002Z 2300/2324 20005KT 3000 BR SCT015 
     TEMPO 2304/2307 1500 BR SCT010 
     PROB40 2305/2306 0600 FG BKN010 
     BECMG 2310/2312 34006KT 6000 NSW 
     TEMPO 2312/2324 3000 -TSRA FEW026CB
       
DTTZ 230100Z 07002KT 7000 SCT033 13/10 Q1019
TAF DTTZ 230002Z 2300/2324 10005KT 9999 SCT030 
     PROB40 2300/2303 VRB25KT 3000 -RA FEW026CB 
     BECMG 2310/2312 27005KT
       
DTTD 230100Z AUTO 00000KT NCD 10/09 Q1020
DTTB 230100Z 05003KT CAVOK 10/06 Q1017
TAF DTTB 230006Z 2301/2310 16005KT CAVOK 
     BECMG 2304/2306 22006KT
       
DTKA 230100Z 07005KT 9999 FEW020 10/05 Q1017 NOSIG
TAF DTKA 230006Z 2301/2310 07005KT CAVOK
       
DTTX 230100Z 00000KT 9999 FEW020 SCT030 13/10 Q1019 NOSIG
TAF DTTX 230006Z 2301/2310 24004KT 9999 SCT030 
     BECMG 2307/2309 30004KT
       
DTTJ 230130Z 00000KT 8000 SCT023 14/13 Q1019 NOSIG
TAF DTTJ 230002Z 2300/2324 10006KT 9999 SCT025 
     TEMPO 2300/2324 3000 -RA FEW030CB 
     BECMG 2310/2312 27005KT 
     BECMG 2314/2316 33006KT